createdAt,value
2019-02-11T00:01:47.828Z,99197.00
2019-02-11T00:04:15.867Z,99203.00
2019-02-11T00:06:43.772Z,99201.00
2019-02-11T00:09:11.705Z,99213.00
2019-02-11T00:11:40.887Z,99236.00
2019-02-11T00:14:08.764Z,99215.00
2019-02-11T00:16:36.695Z,99228.00
2019-02-11T00:19:04.626Z,99224.00
2019-02-11T00:21:32.632Z,99237.00
2019-02-11T00:24:20.422Z,99263.00
2019-02-11T00:27:02.572Z,99263.00
2019-02-11T00:29:50.717Z,99274.00
2019-02-11T00:32:18.636Z,99281.00
2019-02-11T00:35:06.041Z,99281.00
2019-02-11T00:37:33.923Z,99288.00
2019-02-11T00:40:01.837Z,99288.00
2019-02-11T00:42:29.810Z,99288.00
2019-02-11T00:44:57.780Z,99294.00
2019-02-11T00:47:38.508Z,99307.00
2019-02-11T00:50:26.113Z,99030.00
2019-02-11T00:53:06.763Z,99160.00
2019-02-11T00:55:54.185Z,99389.00
2019-02-11T00:58:35.075Z,99433.00
2019-02-11T01:01:02.987Z,99332.00
2019-02-11T01:03:30.844Z,99340.00
2019-02-11T01:05:58.998Z,99333.00
2019-02-11T01:08:26.890Z,99333.00
2019-02-11T01:11:14.433Z,99367.00
2019-02-11T01:13:55.882Z,99016.00
2019-02-11T01:16:43.228Z,99466.00
2019-02-11T01:19:24.047Z,99373.00
2019-02-11T01:22:11.655Z,99206.00
2019-02-11T01:24:52.573Z,99399.00
2019-02-11T01:27:40.000Z,99398.00
2019-02-11T01:30:20.686Z,99272.00
2019-02-11T01:33:08.368Z,99415.00
2019-02-11T01:35:48.770Z,99305.00
2019-02-11T01:38:36.194Z,99238.00
2019-02-11T01:41:04.104Z,99441.00
2019-02-11T01:43:51.874Z,99576.00
2019-02-11T01:46:32.191Z,99287.00
2019-02-11T01:49:19.775Z,99468.00
2019-02-11T01:51:47.688Z,99471.00
2019-02-11T01:54:35.461Z,99221.00
2019-02-11T01:57:03.408Z,99481.00
2019-02-11T01:59:51.033Z,99218.00
2019-02-11T02:02:32.214Z,99483.00
2019-02-11T02:05:19.669Z,99268.00
2019-02-11T02:08:00.372Z,99230.00
2019-02-11T02:10:47.708Z,99503.00
2019-02-11T02:13:27.972Z,99611.00
2019-02-11T02:16:09.994Z,99431.00
2019-02-11T02:18:57.395Z,99517.00
2019-02-11T02:21:25.249Z,99514.00
2019-02-11T02:23:53.107Z,99522.00
2019-02-11T02:26:39.866Z,99528.00
2019-02-11T02:29:23.680Z,99231.00
2019-02-11T02:32:11.338Z,99361.00
2019-02-11T02:34:51.344Z,99336.00
2019-02-11T02:37:38.869Z,99541.00
2019-02-11T02:40:07.171Z,99554.00
2019-02-11T02:42:54.738Z,99556.00
2019-02-11T02:45:35.288Z,99620.00
2019-02-11T02:48:22.649Z,99229.00
2019-02-11T02:51:03.484Z,99584.00
2019-02-11T02:53:50.867Z,99539.00
2019-02-11T02:56:31.518Z,99505.00
2019-02-11T02:59:18.945Z,99462.00
2019-02-11T03:02:01.080Z,99597.00
2019-02-11T03:04:48.597Z,99593.00
2019-02-11T03:07:29.213Z,99429.00
2019-02-11T03:09:57.237Z,99606.00
2019-02-11T03:12:38.013Z,99610.00
2019-02-11T03:15:25.427Z,99614.00
2019-02-11T03:18:06.561Z,99618.00
2019-02-11T03:20:34.673Z,99630.00
2019-02-11T03:23:02.626Z,99570.00
2019-02-11T03:25:50.049Z,99430.00
2019-02-11T03:28:30.392Z,99659.00
2019-02-11T03:31:18.011Z,99669.00
2019-02-11T03:33:58.793Z,99658.00
2019-02-11T03:36:46.443Z,99475.00
2019-02-11T03:39:26.841Z,99674.00
2019-02-11T03:42:14.242Z,99743.00
2019-02-11T03:44:42.203Z,99696.00
2019-02-11T03:47:29.973Z,99465.00
2019-02-11T03:50:10.627Z,99733.00
2019-02-11T03:52:58.173Z,99771.00
2019-02-11T03:55:39.057Z,99427.00
2019-02-11T03:58:26.451Z,99723.00
2019-02-11T04:01:07.530Z,99576.00
2019-02-11T04:03:48.506Z,99509.00
2019-02-11T04:06:35.886Z,99508.00
2019-02-11T04:09:25.410Z,99743.00
2019-02-11T04:12:12.831Z,99530.00
2019-02-11T04:14:40.701Z,99760.00
2019-02-11T04:17:08.663Z,99763.00
2019-02-11T04:19:36.567Z,99770.00
2019-02-11T04:22:06.893Z,99775.00
2019-02-11T04:24:34.815Z,99782.00
2019-02-11T04:27:16.498Z,99546.00
2019-02-11T04:30:04.065Z,99522.00
2019-02-11T04:32:45.126Z,99800.00
2019-02-11T04:35:26.062Z,99678.00
2019-02-11T04:38:07.018Z,99621.00
2019-02-11T04:40:54.411Z,99511.00
2019-02-11T04:43:35.293Z,99827.00
2019-02-11T04:46:22.722Z,99635.00
2019-02-11T04:48:50.665Z,99838.00
2019-02-11T04:51:38.283Z,99704.00
2019-02-11T04:54:19.223Z,99849.00
2019-02-11T04:57:06.661Z,99823.00
2019-02-11T04:59:47.266Z,99586.00
2019-02-11T05:02:34.910Z,99643.00
2019-02-11T05:05:18.961Z,99852.00
2019-02-11T05:08:06.517Z,99595.00
2019-02-11T05:10:47.804Z,99650.00
2019-02-11T05:13:35.200Z,99949.00
2019-02-11T05:16:16.150Z,99866.00
2019-02-11T05:18:57.654Z,99864.00
2019-02-11T05:21:38.504Z,99882.00
2019-02-11T05:24:19.588Z,99885.00
2019-02-11T05:26:47.488Z,99903.00
2019-02-11T05:29:28.831Z,99684.00
2019-02-11T05:32:09.822Z,99899.00
2019-02-11T05:34:37.781Z,99899.00
2019-02-11T05:37:05.727Z,99907.00
2019-02-11T05:39:47.776Z,99917.00
2019-02-11T05:42:35.344Z,99738.00
2019-02-11T05:45:15.957Z,99651.00
2019-02-11T05:48:03.502Z,99683.00
2019-02-11T05:50:43.672Z,99935.00
2019-02-11T05:53:31.385Z,100033.00
2019-02-11T05:56:11.870Z,99938.00
2019-02-11T05:58:52.994Z,99683.00
2019-02-11T06:01:40.656Z,99939.00
2019-02-11T06:04:08.492Z,99944.00
2019-02-11T06:06:36.392Z,99958.00
2019-02-11T06:09:05.285Z,99961.00
2019-02-11T06:11:33.209Z,99965.00
2019-02-11T06:14:16.348Z,99983.00
2019-02-11T06:17:03.737Z,99971.00
2019-02-11T06:19:31.704Z,99989.00
2019-02-11T06:22:19.455Z,99767.00
2019-02-11T06:25:00.631Z,99999.00
2019-02-11T06:27:28.651Z,100008.00
2019-02-11T06:29:56.505Z,100003.00
2019-02-11T06:32:43.858Z,99832.00
2019-02-11T06:35:12.016Z,100022.00
2019-02-11T06:37:39.959Z,100023.00
2019-02-11T06:40:08.533Z,100039.00
2019-02-11T06:42:36.587Z,100047.00
2019-02-11T06:45:18.122Z,100179.00
2019-02-11T06:48:05.549Z,100098.00
2019-02-11T06:50:46.519Z,99875.00
2019-02-11T06:53:27.045Z,99919.00
2019-02-11T06:56:07.554Z,100087.00
2019-02-11T06:58:55.292Z,100114.00
2019-02-11T07:01:35.576Z,100091.00
2019-02-11T07:04:16.834Z,100098.00
2019-02-11T07:07:04.685Z,100110.00
2019-02-11T07:09:45.647Z,100113.00
2019-02-11T07:12:33.068Z,99914.00
2019-02-11T07:15:21.720Z,99787.00
2019-02-11T07:18:04.310Z,99926.00
2019-02-11T07:20:46.180Z,100195.00
2019-02-11T07:23:27.479Z,100125.00
2019-02-11T07:26:15.018Z,100133.00
2019-02-11T07:28:53.518Z,100138.00
2019-02-11T07:31:34.597Z,99957.00
2019-02-11T07:34:21.957Z,99917.00
2019-02-11T07:37:03.510Z,99807.00
2019-02-11T07:39:44.623Z,100242.00
2019-02-11T07:42:51.634Z,99995.00
2019-02-11T07:48:42.826Z,100194.00
2019-02-11T07:51:23.591Z,100154.00
2019-02-11T07:54:12.341Z,100264.00
2019-02-11T07:56:59.630Z,100209.00
2019-02-11T07:59:27.675Z,100211.00
2019-02-11T08:01:55.746Z,100220.00
2019-02-11T08:04:43.303Z,100012.00
2019-02-11T08:07:23.656Z,99989.00
2019-02-11T08:10:11.061Z,100096.00
2019-02-11T08:12:39.773Z,100249.00
2019-02-11T08:15:07.730Z,100255.00
2019-02-11T08:17:48.485Z,100268.00
2019-02-11T08:20:36.013Z,99971.00
2019-02-11T08:23:18.431Z,100145.00
2019-02-11T08:26:06.287Z,100269.00
2019-02-11T08:28:54.816Z,100277.00
2019-02-11T08:31:42.332Z,100078.00
2019-02-11T08:34:10.281Z,100293.00
2019-02-11T08:36:38.234Z,100286.00
2019-02-11T08:39:08.518Z,100291.00
2019-02-11T08:41:36.542Z,100307.00
2019-02-11T08:44:05.471Z,100298.00
2019-02-11T08:46:33.623Z,100322.00
2019-02-11T08:49:01.534Z,100322.00
2019-02-11T08:51:43.200Z,100365.00
2019-02-11T08:54:11.219Z,100330.00
2019-02-11T08:56:39.150Z,100343.00
2019-02-11T08:59:07.038Z,100348.00
2019-02-11T09:01:35.172Z,100354.00
2019-02-11T09:04:03.254Z,100367.00
2019-02-11T09:06:31.239Z,100367.00
2019-02-11T09:08:59.294Z,100360.00
2019-02-11T09:11:27.222Z,100365.00
2019-02-11T09:14:14.779Z,100253.00
2019-02-11T09:16:55.565Z,100330.00
2019-02-11T09:19:23.516Z,100389.00
2019-02-11T09:21:51.536Z,100398.00
2019-02-11T09:24:39.129Z,100398.00
2019-02-11T09:27:20.939Z,100176.00
2019-02-11T09:29:49.108Z,100405.00
2019-02-11T09:32:18.258Z,100403.00
2019-02-11T09:34:46.239Z,100417.00
2019-02-11T09:37:14.154Z,100405.00
2019-02-11T09:39:42.162Z,100413.00
2019-02-11T09:42:10.661Z,100415.00
2019-02-11T09:44:38.725Z,100435.00
2019-02-11T09:47:06.677Z,100429.00
2019-02-11T09:49:34.691Z,100445.00
2019-02-11T09:52:16.514Z,100192.00
2019-02-11T09:54:57.541Z,100434.00
2019-02-11T09:57:25.505Z,100445.00
2019-02-11T10:00:05.792Z,100222.00
2019-02-11T10:02:53.469Z,100482.00
2019-02-11T10:05:33.686Z,100476.00
2019-02-11T10:08:14.062Z,100478.00
2019-02-11T10:10:42.344Z,100489.00
2019-02-11T10:13:22.675Z,100494.00
2019-02-11T10:16:12.530Z,100487.00
2019-02-11T10:19:00.117Z,100501.00
2019-02-11T10:21:28.181Z,100514.00
2019-02-11T10:24:10.806Z,100291.00
2019-02-11T10:26:38.971Z,100525.00
2019-02-11T10:29:06.902Z,100513.00
2019-02-11T10:31:34.940Z,100518.00
2019-02-11T10:34:16.888Z,100276.00
2019-02-11T10:36:44.985Z,100525.00
2019-02-11T10:39:26.423Z,100534.00
2019-02-11T10:42:14.070Z,100531.00
2019-02-11T10:44:54.935Z,100548.00
2019-02-11T10:47:35.825Z,100590.00
2019-02-11T10:50:15.816Z,100302.00
2019-02-11T10:52:43.851Z,100571.00
2019-02-11T10:55:24.709Z,100316.00
2019-02-11T10:58:12.160Z,100677.00
2019-02-11T11:00:56.530Z,100567.00
2019-02-11T11:03:44.136Z,100576.00
2019-02-11T11:06:25.181Z,100582.00
2019-02-11T11:09:14.374Z,100471.00
2019-02-11T11:11:54.702Z,100465.00
2019-02-11T11:14:42.196Z,100635.00
2019-02-11T11:17:10.920Z,100588.00
2019-02-11T11:19:51.725Z,100336.00
2019-02-11T11:22:34.674Z,100399.00
2019-02-11T11:25:15.827Z,100574.00
2019-02-11T11:28:03.435Z,100582.00
2019-02-11T11:30:44.343Z,100343.00
2019-02-11T11:33:33.329Z,100416.00
2019-02-11T11:36:13.791Z,100409.00
2019-02-11T11:39:01.445Z,100407.00
2019-02-11T11:41:44.046Z,100397.00
2019-02-11T11:44:31.759Z,100564.00
2019-02-11T11:47:12.019Z,100716.00
2019-02-11T11:49:59.549Z,100445.00
2019-02-11T11:52:47.839Z,100726.00
2019-02-11T11:55:35.455Z,100574.00
2019-02-11T11:58:16.226Z,100749.00
2019-02-11T12:00:57.037Z,100715.00
2019-02-11T12:03:44.849Z,100744.00
2019-02-11T12:06:25.916Z,100642.00
2019-02-11T12:08:53.952Z,100636.00
2019-02-11T12:11:21.998Z,100647.00
2019-02-11T12:14:09.455Z,100414.00
2019-02-11T12:16:37.478Z,100655.00
2019-02-11T12:19:05.406Z,100644.00
2019-02-11T12:21:33.581Z,100646.00
2019-02-11T12:24:01.660Z,100644.00
2019-02-11T12:26:29.598Z,100648.00
2019-02-11T12:29:11.795Z,100776.00
2019-02-11T12:31:59.215Z,100647.00
2019-02-11T12:34:40.061Z,100711.00
2019-02-11T12:37:27.494Z,100640.00
2019-02-11T12:40:08.218Z,100488.00
2019-02-11T12:42:56.249Z,100420.00
2019-02-11T12:45:36.998Z,100768.00
2019-02-11T12:48:17.973Z,100655.00
2019-02-11T12:50:46.004Z,100694.00
2019-02-11T12:53:26.797Z,100667.00
2019-02-11T12:56:07.699Z,100452.00
2019-02-11T12:58:55.212Z,100777.00
2019-02-11T13:01:23.299Z,100682.00
2019-02-11T13:04:11.072Z,100819.00
2019-02-11T13:06:39.051Z,100694.00
2019-02-11T13:09:07.215Z,100695.00
2019-02-11T13:11:49.674Z,100694.00
2019-02-11T13:14:17.595Z,100696.00
2019-02-11T13:16:45.951Z,100668.00
2019-02-11T13:19:13.823Z,100697.00
2019-02-11T13:21:41.780Z,100710.00
2019-02-11T13:24:22.383Z,100450.00
2019-02-11T13:27:10.147Z,100494.00
2019-02-11T13:29:38.192Z,100732.00
2019-02-11T13:32:25.780Z,100749.00
2019-02-11T13:35:08.081Z,100537.00
2019-02-11T13:37:56.410Z,100744.00
2019-02-11T13:40:57.901Z,100744.00
2019-02-11T13:44:04.846Z,100749.00
2019-02-11T13:46:44.896Z,100749.00
2019-02-11T13:49:32.743Z,100751.00
2019-02-11T13:52:14.218Z,100755.00
2019-02-11T13:54:42.284Z,100755.00
2019-02-11T13:57:22.949Z,100871.00
2019-02-11T13:59:50.806Z,100768.00
2019-02-11T14:02:31.791Z,100571.00
2019-02-11T14:05:19.250Z,100629.00
2019-02-11T14:08:00.281Z,100571.00
2019-02-11T14:10:28.678Z,100796.00
2019-02-11T14:12:56.908Z,100797.00
2019-02-11T14:15:44.429Z,100740.00
2019-02-11T14:18:25.498Z,100716.00
2019-02-11T14:20:53.540Z,100815.00
2019-02-11T14:23:34.166Z,100539.00
2019-02-11T14:26:21.830Z,100590.00
2019-02-11T14:28:50.105Z,100833.00
2019-02-11T14:31:18.385Z,100844.00
2019-02-11T14:34:00.825Z,100844.00
2019-02-11T14:36:51.342Z,100657.00
2019-02-11T14:39:31.877Z,100851.00
2019-02-11T14:42:19.430Z,100929.00
2019-02-11T14:44:47.691Z,100846.00
2019-02-11T14:47:35.557Z,100748.00
2019-02-11T14:50:16.149Z,100874.00
2019-02-11T14:53:04.083Z,100622.00
2019-02-11T14:55:46.818Z,100576.00
2019-02-11T14:58:34.562Z,100972.00
2019-02-11T15:01:15.221Z,100656.00
2019-02-11T15:04:03.870Z,100884.00
2019-02-11T15:06:44.100Z,100775.00
2019-02-11T15:09:31.837Z,100925.00
2019-02-11T15:11:59.926Z,100890.00
2019-02-11T15:14:47.379Z,100638.00
2019-02-11T15:17:27.604Z,100914.00
2019-02-11T15:20:15.122Z,100907.00
2019-02-11T15:22:55.693Z,100951.00
2019-02-11T15:25:43.106Z,100956.00
2019-02-11T15:28:23.148Z,100952.00
2019-02-11T15:30:51.469Z,100945.00
2019-02-11T15:33:32.264Z,100657.00
2019-02-11T15:36:00.186Z,100976.00
2019-02-11T15:38:28.642Z,100981.00
2019-02-11T15:40:56.650Z,100973.00
2019-02-11T15:43:38.220Z,100771.00
2019-02-11T15:46:19.207Z,100986.00
2019-02-11T15:49:07.110Z,100989.00
2019-02-11T15:51:47.619Z,100991.00
2019-02-11T15:54:35.306Z,101008.00
2019-02-11T15:57:03.447Z,101006.00
2019-02-11T15:59:51.168Z,101004.00
2019-02-11T16:02:19.197Z,101029.00
2019-02-11T16:04:47.260Z,101016.00
2019-02-11T16:07:28.020Z,100828.00
2019-02-11T16:10:17.629Z,101036.00
2019-02-11T16:13:01.450Z,101038.00
2019-02-11T16:15:48.895Z,101050.00
2019-02-11T16:18:29.370Z,101052.00
2019-02-11T16:21:17.110Z,101059.00
2019-02-11T16:24:00.090Z,100839.00
2019-02-11T16:26:40.852Z,101057.00
2019-02-11T16:29:28.237Z,101078.00
2019-02-11T16:32:08.691Z,100835.00
2019-02-11T16:34:56.259Z,100985.00
2019-02-11T16:37:36.862Z,101078.00
2019-02-11T16:40:12.097Z,101088.00
2019-02-11T16:42:40.050Z,101085.00
2019-02-11T16:45:09.235Z,101085.00
2019-02-11T16:47:37.209Z,101104.00
2019-02-11T16:50:05.200Z,101108.00
2019-02-11T16:52:33.290Z,101106.00
2019-02-11T16:55:01.250Z,101115.00
2019-02-11T16:57:29.315Z,101121.00
2019-02-11T17:00:17.049Z,101120.00
2019-02-11T17:02:57.659Z,101139.00
2019-02-11T17:05:25.717Z,101143.00
2019-02-11T17:08:06.829Z,101146.00
2019-02-11T17:10:54.505Z,101088.00
2019-02-11T17:13:34.971Z,100997.00
2019-02-11T17:16:22.383Z,100929.00
2019-02-11T17:19:09.078Z,101243.00
2019-02-11T17:21:52.799Z,101196.00
2019-02-11T17:24:32.946Z,101209.00
2019-02-11T17:27:20.815Z,101225.00
2019-02-11T17:30:01.358Z,101262.00
2019-02-11T17:32:42.102Z,101223.00
2019-02-11T17:35:29.533Z,101284.00
2019-02-11T17:38:10.300Z,101211.00
2019-02-11T17:40:57.882Z,101257.00
2019-02-11T17:43:38.524Z,101087.00
2019-02-11T17:46:06.612Z,101269.00
2019-02-11T17:48:48.737Z,101274.00
2019-02-11T17:51:16.663Z,101282.00
2019-02-11T17:53:44.923Z,101296.00
2019-02-11T17:56:12.961Z,101288.00
2019-02-11T17:58:53.924Z,101074.00
2019-02-11T18:01:41.655Z,101198.00
2019-02-11T18:04:09.745Z,101318.00
2019-02-11T18:06:37.788Z,101326.00
2019-02-11T18:09:07.924Z,101324.00
2019-02-11T18:11:35.851Z,101327.00
2019-02-11T18:14:03.951Z,101325.00
2019-02-11T18:16:32.036Z,101339.00
2019-02-11T18:19:00.094Z,101349.00
2019-02-11T18:21:28.112Z,101359.00
2019-02-11T18:23:56.457Z,101350.00
2019-02-11T18:26:24.584Z,101356.00
2019-02-11T18:28:52.766Z,101351.00
2019-02-11T18:31:21.626Z,101351.00
2019-02-11T18:33:49.835Z,101372.00
2019-02-11T18:36:31.746Z,101176.00
2019-02-11T18:39:13.014Z,101129.00
2019-02-11T18:41:41.066Z,101382.00
2019-02-11T18:44:09.122Z,101386.00
2019-02-11T18:46:37.670Z,101390.00
2019-02-11T18:49:05.618Z,101403.00
2019-02-11T18:51:35.224Z,101398.00
2019-02-11T18:54:22.807Z,101289.00
2019-02-11T18:57:10.549Z,101419.00
2019-02-11T18:59:51.097Z,101166.00
2019-02-11T19:02:19.166Z,101419.00
2019-02-11T19:04:59.957Z,101429.00
2019-02-11T19:07:47.477Z,101559.00
2019-02-11T19:10:15.662Z,101435.00
2019-02-11T19:13:03.201Z,101212.00
2019-02-11T19:15:44.087Z,101246.00
2019-02-11T19:18:31.814Z,101149.00
2019-02-11T19:21:12.206Z,101167.00
2019-02-11T19:23:40.322Z,101456.00
2019-02-11T19:26:21.346Z,101459.00
2019-02-11T19:29:08.918Z,101128.00
2019-02-11T19:31:49.148Z,101220.00
2019-02-11T19:34:36.682Z,101455.00
2019-02-11T19:37:20.590Z,101456.00
2019-02-11T19:40:09.455Z,101285.00
2019-02-11T19:42:49.983Z,101452.00
2019-02-11T19:45:37.795Z,101359.00
2019-02-11T19:48:07.053Z,101458.00
2019-02-11T19:50:54.485Z,101535.00
2019-02-11T19:53:34.815Z,101454.00
2019-02-11T19:56:22.450Z,101467.00
2019-02-11T19:59:02.929Z,101480.00
2019-02-11T20:01:30.944Z,101479.00
2019-02-11T20:04:07.082Z,101494.00
2019-02-11T20:06:48.863Z,101249.00
2019-02-11T20:09:34.196Z,101500.00
2019-02-11T20:12:02.320Z,101510.00
2019-02-11T20:14:30.592Z,101505.00
2019-02-11T20:16:59.008Z,101507.00
2019-02-11T20:19:27.118Z,101512.00
2019-02-11T20:22:14.885Z,101401.00
2019-02-11T20:24:56.018Z,101581.00
2019-02-11T20:27:43.723Z,101495.00
2019-02-11T20:30:14.457Z,101492.00
2019-02-11T20:45:26.734Z,101513.00
2019-02-11T20:47:54.984Z,101517.00
2019-02-11T20:50:42.547Z,101523.00
2019-02-11T20:53:24.744Z,101525.00
2019-02-11T20:56:12.436Z,101387.00
2019-02-11T21:11:15.431Z,101521.00
2019-02-11T21:14:03.374Z,101634.00
2019-02-11T21:16:43.860Z,101540.00
2019-02-11T21:22:30.331Z,101535.00
2019-02-11T21:25:11.826Z,101590.00
2019-02-11T21:27:59.612Z,101557.00
2019-02-11T21:30:40.717Z,101316.00
2019-02-11T21:33:28.447Z,101482.00
2019-02-11T21:36:09.564Z,101576.00
2019-02-11T21:38:37.609Z,101586.00
2019-02-11T21:41:25.315Z,101603.00
2019-02-11T21:43:53.391Z,101609.00
2019-02-11T21:46:41.074Z,101632.00
2019-02-11T21:49:22.701Z,101505.00
2019-02-11T21:51:52.029Z,101646.00
2019-02-11T21:54:20.102Z,101643.00
2019-02-11T21:56:48.089Z,101637.00
2019-02-11T21:59:16.103Z,101650.00
2019-02-11T22:02:03.536Z,101440.00
2019-02-11T22:04:44.944Z,101658.00
2019-02-11T22:07:32.359Z,101662.00
2019-02-11T22:10:13.284Z,101671.00
2019-02-11T22:13:00.929Z,101567.00
2019-02-11T22:15:41.861Z,101336.00
2019-02-11T22:18:22.168Z,101664.00
2019-02-11T22:20:50.165Z,101669.00
2019-02-11T22:23:30.494Z,101683.00
2019-02-11T22:25:58.440Z,101677.00
2019-02-11T22:44:09.759Z,101573.00
2019-02-11T22:46:57.236Z,101494.00
2019-02-11T22:49:44.386Z,101696.00
2019-02-11T22:52:12.451Z,101670.00
2019-02-11T22:54:40.415Z,101681.00
2019-02-11T22:57:08.533Z,101676.00
2019-02-11T22:59:36.550Z,101692.00
2019-02-11T23:05:04.644Z,101712.00
2019-02-11T23:07:52.097Z,101721.00
2019-02-11T23:10:33.069Z,101732.00
2019-02-11T23:13:01.529Z,101749.00
2019-02-11T23:15:43.597Z,101559.00
2019-02-11T23:18:11.549Z,101761.00
2019-02-11T23:20:52.720Z,101642.00
2019-02-11T23:26:29.972Z,101759.00
2019-02-11T23:32:17.595Z,101775.00
2019-02-11T23:35:05.493Z,101776.00
2019-02-11T23:50:25.666Z,101789.00
2019-02-11T23:53:06.524Z,101583.00
2019-02-11T23:55:47.591Z,101792.00
